Time;durP1;ratioP1;P1;durP2;ratioP2;P2;SDS_P1;SDS_P2;PMS_P1;PMS_P2;Temp;Humidity;BMP_temperature;BMP_pressure;BME280_temperature;BME280_humidity;BME280_pressure;Samples;Min_cycle;Max_cycle;Signal;HPM_P1;HPM_P2
2021/05/24 00:02:16;;;;;;;;;;;16.30;97.20;;;;;;5076885;28;20301;-71
2021/05/24 00:04:42;;;;;;;;;;;16.20;97.10;;;;;;5076779;28;19904;-77
2021/05/24 00:07:08;;;;;;;;;;;16.20;97.30;;;;;;5076631;28;19905;-72
2021/05/24 00:09:33;;;;;;;;;;;16.00;97.40;;;;;;5076723;28;19904;-76
2021/05/24 00:12:02;;;;;;;;;;;15.90;97.60;;;;;;5076460;28;20274;-72
2021/05/24 00:14:28;;;;;;;;;;;16.10;97.50;;;;;;5076075;28;20041;-77
2021/05/24 00:16:54;;;;;;;;;;;16.10;97.30;;;;;;5076430;28;20347;-77
2021/05/24 00:19:20;;;;;;;;;;;16.10;97.70;;;;;;5076583;28;19904;-72
2021/05/24 00:21:46;;;;;;;;;;;16.10;97.80;;;;;;5075410;28;19947;-72
2021/05/24 00:24:12;;;;;;;;;;;15.90;97.90;;;;;;5073644;28;19910;-72
2021/05/24 00:26:37;;;;;;;;;;;16.10;97.90;;;;;;5076407;28;20382;-76
2021/05/24 00:29:04;;;;;;;;;;;16.10;97.90;;;;;;5076342;28;19912;-72
2021/05/24 00:31:29;;;;;;;;;;;16.20;97.70;;;;;;5058102;28;20258;-76
2021/05/24 00:33:55;;;;;;;;;;;16.00;97.80;;;;;;5076198;28;19908;-77
2021/05/24 00:36:21;;;;;;;;;;;15.80;98.20;;;;;;5074935;28;19991;-77
2021/05/24 00:38:47;;;;;;;;;;;15.90;98.40;;;;;;5076144;28;19946;-73
2021/05/24 00:41:13;;;;;;;;;;;15.80;98.40;;;;;;5058125;28;19904;-76
2021/05/24 00:43:38;;;;;;;;;;;15.90;98.50;;;;;;5075949;28;19904;-71
2021/05/24 00:46:04;;;;;;;;;;;15.70;98.90;;;;;;5075919;28;19923;-80
2021/05/24 00:48:30;;;;;;;;;;;15.90;99.00;;;;;;5076385;28;20312;-82
2021/05/24 00:50:56;;;;;;;;;;;15.80;99.40;;;;;;5076043;28;19913;-74
2021/05/24 00:53:21;;;;;;;;;;;15.70;99.50;;;;;;5058226;28;20417;-73
2021/05/24 00:55:47;;;;;;;;;;;15.60;99.90;;;;;;5076262;28;19917;-72
2021/05/24 00:58:13;;;;;;;;;;;15.70;99.90;;;;;;5074074;28;20369;-73
2021/05/24 01:00:43;;;;;;;;;;;15.60;99.90;;;;;;5075709;28;19977;-74
2021/05/24 01:03:10;;;;;;;;;;;15.70;99.90;;;;;;5075609;28;19911;-81
2021/05/24 01:05:36;;;;;;;;;;;15.70;99.90;;;;;;5075860;28;20001;-73
2021/05/24 01:08:03;;;;;;;;;;;15.80;99.90;;;;;;5074275;28;20386;-81
2021/05/24 01:10:29;;;;;;;;;;;15.70;99.90;;;;;;5075860;28;19904;-80
2021/05/24 01:12:57;;;;;;;;;;;15.70;99.90;;;;;;5075515;28;19908;-79
2021/05/24 01:15:23;;;;;;;;;;;15.60;99.90;;;;;;5075442;28;20362;-77
2021/05/24 01:17:48;;;;;;;;;;;15.60;99.90;;;;;;5074312;28;19927;-72
2021/05/24 01:20:14;;;;;;;;;;;15.70;99.90;;;;;;5075568;28;19939;-77
2021/05/24 01:22:45;;;;;;;;;;;15.80;99.90;;;;;;5075231;28;19904;-78
2021/05/24 01:25:11;;;;;;;;;;;15.80;99.90;;;;;;5075417;28;19904;-79
2021/05/24 01:27:36;;;;;;;;;;;15.80;99.90;;;;;;5075516;28;19904;-80
2021/05/24 01:30:03;;;;;;;;;;;15.60;99.90;;;;;;5075618;28;20412;-79
2021/05/24 01:32:29;;;;;;;;;;;15.90;99.90;;;;;;5075371;28;20304;-80
2021/05/24 01:34:55;;;;;;;;;;;15.80;99.90;;;;;;5075302;28;20014;-75
2021/05/24 01:37:21;;;;;;;;;;;15.80;99.90;;;;;;5075255;28;19961;-79
2021/05/24 01:39:47;;;;;;;;;;;15.90;99.90;;;;;;5075669;28;19905;-79
2021/05/24 01:42:12;;;;;;;;;;;15.90;99.90;;;;;;5074830;28;19904;-80
2021/05/24 01:44:40;;;;;;;;;;;16.00;99.90;;;;;;5074608;28;19916;-79
2021/05/24 01:47:06;;;;;;;;;;;16.00;99.90;;;;;;5056267;28;19995;-72
2021/05/24 01:49:33;;;;;;;;;;;16.00;99.90;;;;;;5074981;28;19993;-80
2021/05/24 01:51:59;;;;;;;;;;;15.90;99.90;;;;;;5074607;28;20339;-79
2021/05/24 01:54:25;;;;;;;;;;;15.80;99.90;;;;;;5075050;28;19912;-71
2021/05/24 01:56:51;;;;;;;;;;;15.80;99.90;;;;;;5073496;28;19959;-78
2021/05/24 01:59:17;;;;;;;;;;;15.90;99.90;;;;;;5074662;28;19940;-73
2021/05/24 02:01:43;;;;;;;;;;;15.80;99.90;;;;;;5074784;28;19944;-81
2021/05/24 02:04:09;;;;;;;;;;;15.70;99.90;;;;;;5074623;28;19958;-81
2021/05/24 02:06:35;;;;;;;;;;;;;;;;;;5074615;28;19904;-72
2021/05/24 02:09:01;;;;;;;;;;;15.50;99.90;;;;;;5074965;28;19908;-80
2021/05/24 02:11:28;;;;;;;;;;;15.60;99.90;;;;;;5074254;28;19965;-71
2021/05/24 02:13:54;;;;;;;;;;;15.50;99.90;;;;;;5056662;28;20350;-79
2021/05/24 02:16:46;;;;;;;;;;;15.50;99.90;;;;;;5074574;28;19927;-71
2021/05/24 02:19:13;;;;;;;;;;;15.40;99.90;;;;;;5072296;28;20438;-81
2021/05/24 02:21:39;;;;;;;;;;;15.30;99.90;;;;;;5074667;28;19905;-81
2021/05/24 02:24:06;;;;;;;;;;;15.20;99.90;;;;;;5073810;28;20258;-72
2021/05/24 02:26:32;;;;;;;;;;;15.10;99.90;;;;;;5074117;28;19905;-71
2021/05/24 02:28:57;;;;;;;;;;;15.20;99.90;;;;;;5054842;28;20304;-73
2021/05/24 02:31:23;;;;;;;;;;;15.20;99.90;;;;;;5074288;28;20003;-73
2021/05/24 02:33:49;;;;;;;;;;;15.20;99.90;;;;;;5074116;28;19992;-79
2021/05/24 02:36:15;;;;;;;;;;;15.20;99.90;;;;;;5056274;28;19962;-82
2021/05/24 02:38:41;;;;;;;;;;;15.10;99.90;;;;;;5074210;28;19904;-73
2021/05/24 02:41:06;;;;;;;;;;;15.00;99.90;;;;;;5074344;28;19952;-75
2021/05/24 02:43:32;;;;;;;;;;;15.10;99.90;;;;;;5056368;28;19911;-80
2021/05/24 02:45:58;;;;;;;;;;;15.20;99.90;;;;;;5074102;28;20377;-80
2021/05/24 02:48:24;;;;;;;;;;;15.10;99.90;;;;;;5074219;28;20358;-78
2021/05/24 02:50:50;;;;;;;;;;;14.90;99.90;;;;;;5074244;28;19904;-79
2021/05/24 02:53:15;;;;;;;;;;;14.80;99.90;;;;;;5074349;28;19912;-72
2021/05/24 02:55:41;;;;;;;;;;;14.80;99.90;;;;;;5072331;28;19920;-71
2021/05/24 02:58:06;;;;;;;;;;;14.60;99.90;;;;;;5073896;28;20258;-72
2021/05/24 03:00:32;;;;;;;;;;;14.60;99.90;;;;;;5073998;28;20274;-73
2021/05/24 03:02:58;;;;;;;;;;;14.60;99.90;;;;;;5074064;28;20005;-72
2021/05/24 03:05:24;;;;;;;;;;;14.60;99.90;;;;;;5073357;28;19911;-72
2021/05/24 03:07:50;;;;;;;;;;;14.60;99.90;;;;;;5073453;28;19904;-81
2021/05/24 03:10:17;;;;;;;;;;;14.60;99.90;;;;;;5074042;28;19973;-72
2021/05/24 03:12:44;;;;;;;;;;;14.50;99.90;;;;;;5073869;28;19905;-79
2021/05/24 03:15:10;;;;;;;;;;;14.70;99.90;;;;;;5056005;28;20015;-78
2021/05/24 03:17:36;;;;;;;;;;;14.80;99.90;;;;;;5073801;28;20444;-73
2021/05/24 03:20:03;;;;;;;;;;;14.80;99.90;;;;;;5074038;28;19940;-72
2021/05/24 03:22:29;;;;;;;;;;;14.80;99.90;;;;;;5073831;28;19911;-72
2021/05/24 03:24:54;;;;;;;;;;;14.80;99.90;;;;;;5074089;28;20004;-80
2021/05/24 03:27:20;;;;;;;;;;;15.00;99.90;;;;;;5073725;28;19958;-80
2021/05/24 03:29:47;;;;;;;;;;;15.00;99.90;;;;;;5073889;28;19961;-81
2021/05/24 03:32:13;;;;;;;;;;;15.10;99.90;;;;;;5074043;28;20337;-80
2021/05/24 03:34:38;;;;;;;;;;;15.10;99.90;;;;;;5075221;28;19951;-71
2021/05/24 03:37:04;;;;;;;;;;;15.20;99.90;;;;;;5077559;28;20261;-80
2021/05/24 03:39:30;;;;;;;;;;;15.10;99.90;;;;;;5076742;28;19904;-72
2021/05/24 03:41:55;;;;;;;;;;;15.20;99.90;;;;;;5076556;28;20335;-71
2021/05/24 03:44:22;;;;;;;;;;;15.20;99.90;;;;;;5076388;28;19994;-72
2021/05/24 03:46:48;;;;;;;;;;;15.30;99.90;;;;;;5077155;28;19908;-79
2021/05/24 03:49:13;;;;;;;;;;;15.20;99.90;;;;;;5059284;28;19905;-72
2021/05/24 03:51:39;;;;;;;;;;;15.10;99.90;;;;;;5077448;28;19904;-72
2021/05/24 03:54:05;;;;;;;;;;;15.00;99.90;;;;;;5059218;28;20368;-80
2021/05/24 03:56:31;;;;;;;;;;;15.10;99.90;;;;;;5076975;28;19989;-80
2021/05/24 03:58:57;;;;;;;;;;;15.20;99.90;;;;;;5077191;28;19904;-79
2021/05/24 04:01:23;;;;;;;;;;;15.20;99.90;;;;;;5076958;28;20342;-82
2021/05/24 04:03:51;;;;;;;;;;;15.30;99.90;;;;;;5077153;28;19911;-81
2021/05/24 04:06:17;;;;;;;;;;;15.30;99.90;;;;;;5077140;28;19904;-71
2021/05/24 04:08:43;;;;;;;;;;;15.30;99.90;;;;;;5076828;28;19904;-75
2021/05/24 04:11:10;;;;;;;;;;;15.30;99.90;;;;;;5076898;28;19927;-73
2021/05/24 04:13:36;;;;;;;;;;;15.40;99.90;;;;;;5076748;28;19908;-71
2021/05/24 04:16:02;;;;;;;;;;;15.40;99.90;;;;;;5076400;28;19918;-73
2021/05/24 04:18:33;;;;;;;;;;;15.50;99.90;;;;;;5075627;28;19909;-80
2021/05/24 04:20:59;;;;;;;;;;;15.60;99.90;;;;;;5058837;28;19904;-76
2021/05/24 04:23:25;;;;;;;;;;;15.70;99.90;;;;;;5076642;28;20269;-72
2021/05/24 04:25:52;;;;;;;;;;;15.70;99.90;;;;;;5076273;28;19905;-72
2021/05/24 04:28:18;;;;;;;;;;;15.80;99.90;;;;;;5076622;28;19905;-78
2021/05/24 04:30:44;;;;;;;;;;;16.00;99.90;;;;;;5076813;28;20050;-79
2021/05/24 04:33:10;;;;;;;;;;;16.00;99.90;;;;;;5076418;28;19908;-80
2021/05/24 04:35:36;;;;;;;;;;;16.00;99.90;;;;;;5076123;28;19924;-71
2021/05/24 04:38:04;;;;;;;;;;;16.00;99.90;;;;;;5076371;28;20365;-80
2021/05/24 04:40:31;;;;;;;;;;;15.90;99.90;;;;;;5076567;28;20301;-75
2021/05/24 04:42:58;;;;;;;;;;;16.10;99.90;;;;;;5076242;28;19911;-73
2021/05/24 04:45:24;;;;;;;;;;;16.30;99.90;;;;;;5075708;28;20010;-80
2021/05/24 04:47:50;;;;;;;;;;;16.40;99.90;;;;;;5075831;28;19950;-80
2021/05/24 04:50:16;;;;;;;;;;;16.50;99.90;;;;;;5076261;28;19908;-72
2021/05/24 04:52:42;;;;;;;;;;;16.50;99.90;;;;;;5076378;28;19911;-73
2021/05/24 04:55:08;;;;;;;;;;;16.50;99.90;;;;;;5075709;28;19912;-71
2021/05/24 04:57:35;;;;;;;;;;;;;;;;;;5076268;28;20361;-81
2021/05/24 05:00:01;;;;;;;;;;;16.90;99.90;;;;;;5076155;28;19908;-80
2021/05/24 05:02:28;;;;;;;;;;;17.00;99.90;;;;;;5075973;28;20304;-73
2021/05/24 05:04:55;;;;;;;;;;;17.00;99.90;;;;;;5075962;28;20373;-81
2021/05/24 05:07:22;;;;;;;;;;;17.00;99.90;;;;;;5076111;28;19991;-72
2021/05/24 05:09:47;;;;;;;;;;;17.20;99.90;;;;;;5057916;28;19912;-75
2021/05/24 05:12:13;;;;;;;;;;;17.30;99.90;;;;;;5075782;28;19905;-72
2021/05/24 05:14:39;;;;;;;;;;;17.30;99.90;;;;;;5075692;28;19920;-81
2021/05/24 05:17:05;;;;;;;;;;;17.30;99.90;;;;;;5075787;28;19993;-72
2021/05/24 05:19:31;;;;;;;;;;;17.40;99.90;;;;;;5075571;28;19927;-71
2021/05/24 05:21:56;;;;;;;;;;;17.40;99.90;;;;;;5075779;28;19904;-73
2021/05/24 05:24:22;;;;;;;;;;;17.50;99.90;;;;;;5075224;28;19911;-71
2021/05/24 05:26:48;;;;;;;;;;;17.60;99.40;;;;;;5075079;28;19904;-76
2021/05/24 05:29:13;;;;;;;;;;;17.70;99.40;;;;;;5075389;28;19958;-74
2021/05/24 05:31:39;;;;;;;;;;;17.80;99.00;;;;;;5057179;28;19908;-80
2021/05/24 05:34:05;;;;;;;;;;;17.80;99.50;;;;;;5075198;28;19958;-74
2021/05/24 05:36:31;;;;;;;;;;;17.70;99.30;;;;;;5075078;28;19911;-77
2021/05/24 05:38:57;;;;;;;;;;;17.80;99.00;;;;;;5074441;28;20273;-71
2021/05/24 05:41:23;;;;;;;;;;;17.80;98.50;;;;;;5074895;28;19912;-78
2021/05/24 05:43:49;;;;;;;;;;;17.80;98.80;;;;;;5074617;28;19905;-73
2021/05/24 05:46:15;;;;;;;;;;;17.90;98.80;;;;;;5074576;28;20361;-73
2021/05/24 05:48:40;;;;;;;;;;;17.90;99.10;;;;;;5075128;28;19911;-71
2021/05/24 05:51:06;;;;;;;;;;;18.00;99.30;;;;;;5074838;28;20353;-73
2021/05/24 05:53:32;;;;;;;;;;;18.10;98.10;;;;;;5074398;28;20350;-71
2021/05/24 05:55:58;;;;;;;;;;;18.10;98.20;;;;;;5073215;28;19912;-71
2021/05/24 05:58:24;;;;;;;;;;;18.20;98.20;;;;;;5054987;28;19951;-73
2021/05/24 06:00:50;;;;;;;;;;;18.20;98.60;;;;;;5073769;28;19950;-75
2021/05/24 06:03:16;;;;;;;;;;;18.30;97.80;;;;;;5074443;28;20258;-72
2021/05/24 06:05:42;;;;;;;;;;;18.40;97.70;;;;;;5074492;28;19943;-73
2021/05/24 06:08:07;;;;;;;;;;;18.40;97.30;;;;;;5074509;28;19904;-77
2021/05/24 06:10:34;;;;;;;;;;;18.50;96.30;;;;;;5074743;28;19905;-74
2021/05/24 06:13:00;;;;;;;;;;;18.60;95.20;;;;;;5074363;28;19911;-77
2021/05/24 06:15:26;;;;;;;;;;;18.70;97.10;;;;;;5074382;28;20019;-71
2021/05/24 06:17:51;;;;;;;;;;;18.90;95.60;;;;;;5074355;28;19991;-72
2021/05/24 06:20:17;;;;;;;;;;;18.70;95.80;;;;;;5073825;28;19904;-72
2021/05/24 06:22:43;;;;;;;;;;;18.80;95.40;;;;;;5056221;28;19911;-71
2021/05/24 06:25:10;;;;;;;;;;;18.70;95.60;;;;;;5056094;28;19912;-77
2021/05/24 06:27:36;;;;;;;;;;;18.90;95.80;;;;;;5074093;28;19915;-72
2021/05/24 06:30:03;;;;;;;;;;;19.10;94.70;;;;;;5073447;28;20278;-79
2021/05/24 06:32:29;;;;;;;;;;;19.10;94.70;;;;;;5056310;28;19911;-76
2021/05/24 06:34:55;;;;;;;;;;;19.40;95.30;;;;;;5074104;28;19912;-79
2021/05/24 06:37:20;;;;;;;;;;;19.20;92.40;;;;;;5074181;28;19905;-77
2021/05/24 06:39:46;;;;;;;;;;;19.30;93.10;;;;;;5073885;28;19908;-76
2021/05/24 06:42:12;;;;;;;;;;;19.10;93.90;;;;;;5074013;28;19973;-73
2021/05/24 06:44:38;;;;;;;;;;;19.00;93.70;;;;;;5073701;28;19950;-78
2021/05/24 06:47:05;;;;;;;;;;;19.10;94.50;;;;;;5056105;28;19904;-73
2021/05/24 06:49:31;;;;;;;;;;;19.20;94.00;;;;;;5073916;28;19904;-77
2021/05/24 06:51:57;;;;;;;;;;;19.10;92.80;;;;;;5073858;28;19909;-71
2021/05/24 06:54:22;;;;;;;;;;;19.00;93.30;;;;;;5073789;28;19927;-71
2021/05/24 06:56:48;;;;;;;;;;;18.80;93.10;;;;;;5073479;28;19905;-72
2021/05/24 06:59:14;;;;;;;;;;;18.50;92.90;;;;;;5054618;28;19904;-71
2021/05/24 07:01:39;;;;;;;;;;;18.40;94.00;;;;;;5072309;28;19904;-80
2021/05/24 07:04:06;;;;;;;;;;;18.50;95.10;;;;;;5073928;28;20313;-78
2021/05/24 07:06:31;;;;;;;;;;;18.30;95.00;;;;;;5073862;28;19904;-72
2021/05/24 07:08:57;;;;;;;;;;;18.50;95.30;;;;;;5074334;28;19912;-73
2021/05/24 07:11:24;;;;;;;;;;;18.70;94.20;;;;;;5059501;28;19904;-71
2021/05/24 07:13:50;;;;;;;;;;;18.80;94.30;;;;;;5076289;28;19915;-73
2021/05/24 07:16:16;;;;;;;;;;;18.90;94.40;;;;;;5077512;28;19916;-72
2021/05/24 07:18:42;;;;;;;;;;;18.90;94.20;;;;;;5077330;28;19905;-71
2021/05/24 07:21:08;;;;;;;;;;;18.90;93.80;;;;;;5077456;28;19911;-72
2021/05/24 07:23:34;;;;;;;;;;;18.90;93.80;;;;;;5077391;28;19950;-72
2021/05/24 07:25:59;;;;;;;;;;;19.00;93.80;;;;;;5077588;28;19904;-78
2021/05/24 07:28:27;;;;;;;;;;;19.10;93.80;;;;;;5075822;28;20116;-71
2021/05/24 07:30:53;;;;;;;;;;;19.20;93.80;;;;;;5076376;28;19904;-72
2021/05/24 07:33:19;;;;;;;;;;;19.20;93.40;;;;;;5076206;28;19958;-70
2021/05/24 07:35:45;;;;;;;;;;;19.30;93.40;;;;;;5075945;28;20383;-70
2021/05/24 07:38:11;;;;;;;;;;;19.10;93.70;;;;;;5076545;28;19904;-72
2021/05/24 07:40:37;;;;;;;;;;;19.10;93.40;;;;;;5076259;28;19908;-73
2021/05/24 07:43:03;;;;;;;;;;;19.20;93.50;;;;;;5076970;28;19962;-75
2021/05/24 07:45:28;;;;;;;;;;;19.30;93.80;;;;;;5076692;28;19917;-75
2021/05/24 07:47:54;;;;;;;;;;;19.60;93.10;;;;;;5077196;28;19970;-71
2021/05/24 07:50:20;;;;;;;;;;;19.70;93.60;;;;;;5076729;28;20381;-73
2021/05/24 07:52:46;;;;;;;;;;;19.20;93.20;;;;;;5076747;28;19911;-72
2021/05/24 07:55:12;;;;;;;;;;;19.30;93.40;;;;;;5077074;28;19912;-72
2021/05/24 07:57:39;;;;;;;;;;;19.40;93.90;;;;;;5076816;28;19911;-73
2021/05/24 08:00:08;;;;;;;;;;;19.20;93.30;;;;;;5077367;28;20336;-72
2021/05/24 08:02:34;;;;;;;;;;;18.90;93.90;;;;;;5076537;28;19905;-72
2021/05/24 08:05:00;;;;;;;;;;;18.90;93.70;;;;;;5076623;28;19905;-71
2021/05/24 08:07:26;;;;;;;;;;;19.00;94.20;;;;;;5076668;28;19908;-71
2021/05/24 08:09:52;;;;;;;;;;;19.00;94.30;;;;;;5076667;28;19905;-76
2021/05/24 08:12:17;;;;;;;;;;;19.10;94.20;;;;;;5058564;28;19912;-76
2021/05/24 08:14:43;;;;;;;;;;;19.00;94.00;;;;;;5076408;28;19913;-72
2021/05/24 08:17:09;;;;;;;;;;;19.40;95.50;;;;;;5076289;28;19934;-72
2021/05/24 08:19:35;;;;;;;;;;;19.60;93.70;;;;;;5057865;28;20309;-80
2021/05/24 08:22:00;;;;;;;;;;;19.80;93.00;;;;;;5074151;28;20316;-78
2021/05/24 08:24:26;;;;;;;;;;;20.00;92.60;;;;;;5075780;28;20354;-73
2021/05/24 08:26:52;;;;;;;;;;;20.20;92.70;;;;;;5076355;28;19954;-73
2021/05/24 08:29:18;;;;;;;;;;;20.30;92.00;;;;;;5076112;28;19904;-72
2021/05/24 08:31:44;;;;;;;;;;;20.40;92.20;;;;;;5076163;28;20354;-81
2021/05/24 08:34:10;;;;;;;;;;;20.50;91.90;;;;;;5076215;28;20003;-74
2021/05/24 08:36:36;;;;;;;;;;;20.30;92.00;;;;;;5076196;28;19904;-73
2021/05/24 08:39:03;;;;;;;;;;;20.10;92.50;;;;;;5076207;28;19905;-74
2021/05/24 08:41:30;;;;;;;;;;;20.00;92.50;;;;;;5076515;28;19904;-78
2021/05/24 08:43:56;;;;;;;;;;;20.00;92.70;;;;;;5074827;28;20388;-75
2021/05/24 08:46:23;;;;;;;;;;;19.70;92.30;;;;;;5054504;28;19916;-75
2021/05/24 08:48:51;;;;;;;;;;;19.90;92.60;;;;;;5054833;28;19905;-72
2021/05/24 08:51:17;;;;;;;;;;;19.90;92.80;;;;;;5051642;28;19994;-71
2021/05/24 08:53:42;;;;;;;;;;;20.00;92.80;;;;;;5052767;28;20334;-71
2021/05/24 08:56:08;;;;;;;;;;;19.70;92.70;;;;;;5052568;28;19966;-71
2021/05/24 08:58:35;;;;;;;;;;;19.70;93.00;;;;;;5052672;28;19911;-70
2021/05/24 09:01:01;;;;;;;;;;;19.80;92.60;;;;;;5052598;28;20267;-70
2021/05/24 09:03:30;;;;;;;;;;;19.60;92.70;;;;;;5051205;28;19905;-70
2021/05/24 09:05:58;;;;;;;;;;;19.60;93.30;;;;;;5053498;28;20000;-74
2021/05/24 09:08:37;;;;;;;;;;;19.70;93.10;;;;;;5055418;28;19911;-73
2021/05/24 09:11:03;;;;;;;;;;;19.80;93.50;;;;;;5055695;28;19959;-74
2021/05/24 09:13:33;;;;;;;;;;;20.00;93.40;;;;;;5055727;28;20273;-72
2021/05/24 09:15:59;;;;;;;;;;;19.80;92.70;;;;;;5055293;28;19967;-72
2021/05/24 09:18:25;;;;;;;;;;;19.60;92.90;;;;;;5055729;28;19905;-74
2021/05/24 09:20:51;;;;;;;;;;;19.60;94.00;;;;;;5055743;28;19958;-74
2021/05/24 09:23:22;;;;;;;;;;;19.70;94.20;;;;;;5055558;28;19904;-70
2021/05/24 09:25:48;;;;;;;;;;;19.50;93.00;;;;;;5053990;28;20278;-74
2021/05/24 09:28:33;;;;;;;;;;;19.60;93.20;;;;;;5055279;28;19949;-70
2021/05/24 09:31:00;;;;;;;;;;;19.80;93.20;;;;;;5055672;28;20270;-72
2021/05/24 09:33:26;;;;;;;;;;;20.10;92.80;;;;;;5055165;28;19963;-74
2021/05/24 09:35:52;;;;;;;;;;;20.40;92.20;;;;;;5055307;28;19935;-74
2021/05/24 09:38:20;;;;;;;;;;;20.70;91.60;;;;;;5054953;28;20339;-74
2021/05/24 09:40:56;;;;;;;;;;;20.90;91.60;;;;;;5054875;28;19916;-71
2021/05/24 09:43:29;;;;;;;;;;;20.80;91.90;;;;;;5053635;28;20003;-69
2021/05/24 09:46:08;;;;;;;;;;;21.00;92.10;;;;;;5068906;28;19938;-73
2021/05/24 09:48:33;;;;;;;;;;;21.00;91.00;;;;;;5075148;28;20354;-73
2021/05/24 09:51:02;;;;;;;;;;;20.60;91.20;;;;;;5074479;28;19904;-71
2021/05/24 09:53:27;;;;;;;;;;;20.60;91.00;;;;;;5074865;28;19911;-72
2021/05/24 09:55:53;;;;;;;;;;;20.30;91.90;;;;;;5074376;28;20485;-71
2021/05/24 09:58:20;;;;;;;;;;;20.70;91.90;;;;;;5073824;28;19959;-71
2021/05/24 10:00:51;;;;;;;;;;;21.00;90.90;;;;;;5070005;28;19959;-73
2021/05/24 10:03:20;;;;;;;;;;;21.10;91.10;;;;;;5073965;28;19904;-71
2021/05/24 10:05:48;;;;;;;;;;;21.30;91.50;;;;;;5074375;28;19919;-71
2021/05/24 10:08:14;;;;;;;;;;;21.30;90.50;;;;;;5074308;28;19912;-76
2021/05/24 10:10:41;;;;;;;;;;;21.50;90.20;;;;;;5074559;28;19911;-73
2021/05/24 10:13:07;;;;;;;;;;;21.30;89.20;;;;;;5074209;28;19912;-73
2021/05/24 10:15:40;;;;;;;;;;;21.10;89.90;;;;;;5074357;28;19908;-70
2021/05/24 10:18:06;;;;;;;;;;;21.10;90.10;;;;;;5073773;28;19919;-73
2021/05/24 10:20:33;;;;;;;;;;;21.20;90.40;;;;;;5074078;28;20378;-70
2021/05/24 10:22:58;;;;;;;;;;;21.30;90.70;;;;;;5073802;28;19904;-70
2021/05/24 10:25:24;;;;;;;;;;;21.50;90.60;;;;;;5073824;28;19904;-72
2021/05/24 10:27:51;;;;;;;;;;;21.50;90.20;;;;;;5073815;28;19912;-72
2021/05/24 10:30:17;;;;;;;;;;;21.60;90.00;;;;;;5073623;28;20274;-69
2021/05/24 10:32:56;;;;;;;;;;;21.70;90.10;;;;;;5074022;28;19951;-73
2021/05/24 10:35:35;;;;;;;;;;;22.10;87.60;;;;;;5073798;28;20003;-74
2021/05/24 10:38:19;;;;;;;;;;;22.80;86.00;;;;;;5056146;28;19916;-79
2021/05/24 10:40:45;;;;;;;;;;;23.50;84.20;;;;;;5074148;28;20346;-75
2021/05/24 10:43:15;;;;;;;;;;;24.00;82.50;;;;;;5073773;28;19912;-70
2021/05/24 10:45:40;;;;;;;;;;;23.80;79.80;;;;;;5073033;28;19923;-74
2021/05/24 10:48:06;;;;;;;;;;;23.80;80.50;;;;;;5055613;28;19904;-76
2021/05/24 10:50:33;;;;;;;;;;;23.90;78.60;;;;;;5073966;28;19904;-71
2021/05/24 10:53:00;;;;;;;;;;;24.20;80.80;;;;;;5074058;28;19974;-70
2021/05/24 10:55:25;;;;;;;;;;;24.10;79.80;;;;;;5055772;28;19995;-75
2021/05/24 10:58:14;;;;;;;;;;;24.10;77.70;;;;;;5074114;28;19954;-74
2021/05/24 11:01:01;;;;;;;;;;;24.20;77.80;;;;;;5063309;28;19911;-75
2021/05/24 11:03:28;;;;;;;;;;;24.20;76.80;;;;;;5060514;28;19912;-76
2021/05/24 11:06:19;;;;;;;;;;;24.20;76.40;;;;;;5074384;28;19910;-71
2021/05/24 11:08:49;;;;;;;;;;;24.40;74.80;;;;;;5069734;28;19904;-75
2021/05/24 11:11:18;;;;;;;;;;;24.30;74.60;;;;;;5073931;28;20304;-76
2021/05/24 11:13:51;;;;;;;;;;;23.50;73.50;;;;;;5073957;28;19912;-71
2021/05/24 11:16:17;;;;;;;;;;;23.30;76.00;;;;;;5074032;28;19908;-70
2021/05/24 11:18:45;;;;;;;;;;;23.50;75.20;;;;;;5074176;28;19908;-72
2021/05/24 11:21:13;;;;;;;;;;;23.60;73.30;;;;;;5073812;28;19955;-71
2021/05/24 11:26:12;;;;;;;;;;;23.60;72.10;;;;;;5073687;28;19908;-73
2021/05/24 11:28:42;;;;;;;;;;;23.50;72.60;;;;;;5073718;28;19911;-72
2021/05/24 11:31:09;;;;;;;;;;;23.20;73.10;;;;;;5073591;28;19912;-72
2021/05/24 11:33:38;;;;;;;;;;;23.10;73.20;;;;;;5073738;28;20334;-75
2021/05/24 11:36:05;;;;;;;;;;;23.10;73.90;;;;;;5073617;28;20297;-74
2021/05/24 11:38:31;;;;;;;;;;;23.10;72.80;;;;;;5073779;28;19911;-74
2021/05/24 11:41:15;;;;;;;;;;;22.80;72.90;;;;;;5073737;28;19905;-72
2021/05/24 11:43:43;;;;;;;;;;;22.90;72.50;;;;;;5073054;28;19962;-75
2021/05/24 11:46:10;;;;;;;;;;;22.60;72.70;;;;;;5073262;28;19913;-75
2021/05/24 11:48:43;;;;;;;;;;;22.50;74.60;;;;;;5072892;28;19997;-75
2021/05/24 11:51:09;;;;;;;;;;;22.30;74.90;;;;;;5055390;28;19904;-75
2021/05/24 11:53:36;;;;;;;;;;;22.00;76.90;;;;;;5073688;28;19910;-74
2021/05/24 11:56:08;;;;;;;;;;;22.00;76.60;;;;;;5075479;28;19919;-74
2021/05/24 11:58:53;;;;;;;;;;;21.90;75.60;;;;;;5059015;28;20342;-76
2021/05/24 12:01:18;;;;;;;;;;;21.90;79.20;;;;;;5077023;28;19956;-74
2021/05/24 12:03:47;;;;;;;;;;;21.80;76.50;;;;;;5076909;28;19911;-76
2021/05/24 12:06:13;;;;;;;;;;;21.70;77.90;;;;;;5077154;28;19904;-76
2021/05/24 12:08:44;;;;;;;;;;;21.70;77.80;;;;;;5076075;28;20271;-76
2021/05/24 12:11:12;;;;;;;;;;;21.70;78.80;;;;;;5076285;28;19994;-71
2021/05/24 12:13:56;;;;;;;;;;;21.70;79.40;;;;;;5076527;28;19905;-77
2021/05/24 12:16:23;;;;;;;;;;;21.60;80.90;;;;;;5076545;28;19948;-76
2021/05/24 12:18:49;;;;;;;;;;;21.70;81.80;;;;;;5076667;28;19904;-77
2021/05/24 12:21:29;;;;;;;;;;;21.70;81.00;;;;;;5076545;28;19905;-73
2021/05/24 12:23:57;;;;;;;;;;;21.50;78.30;;;;;;5076207;28;19950;-73
2021/05/24 12:26:23;;;;;;;;;;;21.60;79.90;;;;;;5075856;28;19905;-71
2021/05/24 12:28:49;;;;;;;;;;;21.70;78.70;;;;;;5075756;28;19905;-72
2021/05/24 12:31:14;;;;;;;;;;;21.70;79.60;;;;;;5075709;28;20350;-73
2021/05/24 12:33:44;;;;;;;;;;;21.70;79.40;;;;;;5076182;28;19911;-79
2021/05/24 12:36:09;;;;;;;;;;;21.50;79.60;;;;;;5058146;28;19908;-71
2021/05/24 12:38:45;;;;;;;;;;;21.40;80.60;;;;;;5076285;28;20277;-75
2021/05/24 12:41:11;;;;;;;;;;;21.50;80.60;;;;;;5076293;28;20375;-74
2021/05/24 12:43:47;;;;;;;;;;;21.60;81.40;;;;;;5075925;28;19908;-78
2021/05/24 12:46:13;;;;;;;;;;;21.80;83.10;;;;;;5075976;28;20342;-70
2021/05/24 12:48:40;;;;;;;;;;;22.10;83.50;;;;;;5075284;28;21284;-72
2021/05/24 12:51:14;;;;;;;;;;;22.10;82.50;;;;;;5072106;28;19912;-71
2021/05/24 12:53:39;;;;;;;;;;;22.20;81.80;;;;;;5074871;28;20010;-71
2021/05/24 12:56:06;;;;;;;;;;;22.20;82.30;;;;;;5074681;28;20423;-75
2021/05/24 12:58:36;;;;;;;;;;;22.20;81.50;;;;;;5056580;28;20380;-71
2021/05/24 13:01:02;;;;;;;;;;;22.40;80.40;;;;;;5074832;28;19950;-71
2021/05/24 13:03:54;;;;;;;;;;;22.50;80.80;;;;;;5074456;28;19908;-71
2021/05/24 13:06:19;;;;;;;;;;;22.30;80.90;;;;;;5055825;28;19905;-79
2021/05/24 13:08:48;;;;;;;;;;;22.50;79.60;;;;;;5055199;28;19987;-75
2021/05/24 13:11:14;;;;;;;;;;;22.60;79.90;;;;;;5055583;28;20339;-74
2021/05/24 13:13:40;;;;;;;;;;;22.50;79.30;;;;;;5055693;28;19905;-78
2021/05/24 13:16:18;;;;;;;;;;;22.30;80.70;;;;;;5055651;28;19919;-74
2021/05/24 13:19:08;;;;;;;;;;;22.20;81.00;;;;;;5061587;28;20404;-71
2021/05/24 13:22:05;;;;;;;;;;;22.10;82.00;;;;;;5075331;28;19951;-73
2021/05/24 13:25:21;;;;;;;;;;;22.30;82.50;;;;;;5075278;28;19909;-71
2021/05/24 13:30:26;;;;;;;;;;;23.40;80.20;;;;;;5075297;28;19908;-70
2021/05/24 13:32:52;;;;;;;;;;;23.20;78.90;;;;;;5075250;28;19905;-72
2021/05/24 13:35:22;;;;;;;;;;;23.30;79.30;;;;;;5074803;28;20320;-72
2021/05/24 13:37:48;;;;;;;;;;;23.20;78.60;;;;;;5075014;28;19939;-71
2021/05/24 13:40:17;;;;;;;;;;;23.30;78.30;;;;;;5073958;28;19954;-70
2021/05/24 13:42:44;;;;;;;;;;;23.20;76.70;;;;;;5056829;28;20350;-74
2021/05/24 13:45:10;;;;;;;;;;;23.20;77.10;;;;;;5074858;28;19951;-79
2021/05/24 13:47:36;;;;;;;;;;;23.10;78.00;;;;;;5074908;28;19931;-76
2021/05/24 13:50:02;;;;;;;;;;;23.20;77.50;;;;;;5075136;28;19998;-74
2021/05/24 13:52:27;;;;;;;;;;;23.00;78.30;;;;;;5056754;28;19948;-72
2021/05/24 13:54:53;;;;;;;;;;;22.70;79.70;;;;;;5074144;28;20374;-71
2021/05/24 13:57:19;;;;;;;;;;;22.60;81.00;;;;;;5073316;28;19908;-78
2021/05/24 13:59:44;;;;;;;;;;;22.60;79.30;;;;;;5074765;28;20346;-72
2021/05/24 14:02:10;;;;;;;;;;;22.40;80.40;;;;;;5056700;28;19954;-76
2021/05/24 14:04:36;;;;;;;;;;;22.20;81.40;;;;;;5056491;28;20007;-73
2021/05/24 14:07:02;;;;;;;;;;;22.20;81.70;;;;;;5074663;28;19905;-78
2021/05/24 14:09:29;;;;;;;;;;;22.20;82.10;;;;;;5074462;28;20333;-73
2021/05/24 14:11:54;;;;;;;;;;;22.40;82.10;;;;;;5074146;28;20416;-77
2021/05/24 14:14:20;;;;;;;;;;;22.50;82.30;;;;;;5074404;28;19905;-78
2021/05/24 14:16:46;;;;;;;;;;;22.70;82.20;;;;;;5074060;28;20023;-73
2021/05/24 14:19:12;;;;;;;;;;;22.80;82.60;;;;;;5073253;28;19974;-79
2021/05/24 14:21:37;;;;;;;;;;;23.10;81.70;;;;;;5074237;28;20037;-73
2021/05/24 14:24:03;;;;;;;;;;;23.20;81.90;;;;;;5074426;28;19954;-78
2021/05/24 14:26:29;;;;;;;;;;;23.10;81.40;;;;;;5074103;28;19908;-77